createdAt,value
2022-11-12T00:00:45.555Z,9.07
2022-11-12T00:03:31.798Z,9.04
2022-11-12T00:06:27.475Z,9.04
2022-11-12T00:09:14.030Z,9.01
2022-11-12T00:12:00.423Z,9.03
2022-11-12T00:14:47.217Z,9.02
2022-11-12T00:17:35.298Z,8.99
2022-11-12T00:20:22.225Z,8.95
2022-11-12T00:23:09.004Z,8.88
2022-11-12T00:26:02.902Z,8.86
2022-11-12T00:28:49.494Z,8.92
2022-11-12T00:31:36.038Z,8.93
2022-11-12T00:34:23.827Z,8.92
2022-11-12T00:37:10.530Z,8.90
2022-11-12T00:39:59.655Z,8.85
2022-11-12T00:42:46.635Z,8.79
2022-11-12T00:45:36.508Z,8.75
2022-11-12T00:48:23.795Z,8.82
2022-11-12T00:51:14.149Z,8.85
2022-11-12T00:54:00.804Z,8.85
2022-11-12T00:56:53.058Z,8.84
2022-11-12T00:59:39.688Z,8.83
2022-11-12T01:02:26.233Z,8.84
2022-11-12T01:05:16.829Z,8.83
2022-11-12T01:08:15.418Z,8.82
2022-11-12T01:11:11.978Z,8.69
2022-11-12T01:14:00.435Z,8.77
2022-11-12T01:16:48.151Z,8.76
2022-11-12T01:19:40.695Z,8.71
2022-11-12T01:22:27.630Z,8.69
2022-11-12T01:25:16.355Z,8.65
2022-11-12T01:28:16.617Z,8.65
2022-11-12T01:31:11.841Z,8.62
2022-11-12T01:34:01.006Z,8.58
2022-11-12T01:36:47.455Z,8.53
2022-11-12T01:39:45.795Z,8.46
2022-11-12T01:42:34.219Z,8.54
2022-11-12T01:45:31.640Z,8.52
2022-11-12T01:48:28.733Z,8.48
2022-11-12T01:51:16.939Z,8.44
2022-11-12T01:54:11.026Z,8.44
2022-11-12T01:57:08.205Z,8.45
2022-11-12T02:00:01.960Z,8.49
2022-11-12T02:02:54.817Z,8.43
2022-11-12T02:05:45.947Z,8.47
2022-11-12T02:08:36.523Z,8.54
2022-11-12T02:11:23.639Z,8.55
2022-11-12T02:14:11.696Z,8.54
2022-11-12T02:17:01.342Z,8.40
2022-11-12T02:19:48.746Z,8.57
2022-11-12T02:22:37.207Z,8.58
2022-11-12T02:25:51.601Z,8.59
2022-11-12T02:28:38.621Z,8.55
2022-11-12T02:31:26.515Z,8.54
2022-11-12T02:34:18.957Z,8.45
2022-11-12T02:37:05.472Z,8.49
2022-11-12T02:39:53.213Z,8.49
2022-11-12T02:42:39.370Z,8.45
2022-11-12T02:45:26.909Z,8.46
2022-11-12T02:48:19.054Z,8.46
2022-11-12T02:51:06.902Z,8.44
2022-11-12T02:53:53.618Z,8.44
2022-11-12T02:56:57.443Z,8.42
2022-11-12T02:59:43.870Z,8.39
2022-11-12T03:02:32.569Z,8.34
2022-11-12T03:05:21.502Z,8.34
2022-11-12T03:08:09.922Z,8.34
2022-11-12T03:10:56.476Z,8.30
2022-11-12T03:13:45.201Z,8.30
2022-11-12T03:16:35.064Z,8.32
2022-11-12T03:19:22.857Z,8.29
2022-11-12T03:22:10.335Z,8.29
2022-11-12T03:24:57.295Z,8.27
2022-11-12T03:27:43.823Z,8.17
2022-11-12T03:30:34.753Z,8.19
2022-11-12T03:33:28.560Z,8.16
2022-11-12T03:36:19.973Z,8.12
2022-11-12T03:39:06.359Z,8.11
2022-11-12T03:41:52.797Z,8.07
2022-11-12T03:44:40.271Z,8.04
2022-11-12T03:47:31.940Z,8.02
2022-11-12T03:50:23.075Z,8.02
2022-11-12T03:53:12.391Z,8.01
2022-11-12T03:55:58.883Z,7.84
2022-11-12T03:58:45.730Z,8.01
2022-11-12T04:01:35.217Z,8.00
2022-11-12T04:04:45.538Z,7.96
2022-11-12T04:07:49.584Z,7.92
2022-11-12T04:10:36.993Z,7.93
2022-11-12T04:13:29.708Z,7.90
2022-11-12T04:16:35.671Z,7.83
2022-11-12T04:19:48.056Z,7.78
2022-11-12T04:22:34.699Z,7.75
2022-11-12T04:25:41.296Z,7.74
2022-11-12T04:28:28.059Z,7.73
2022-11-12T04:31:14.033Z,7.73
2022-11-12T04:34:20.392Z,7.74
2022-11-12T04:37:08.892Z,7.62
2022-11-12T04:39:55.333Z,7.71
2022-11-12T04:43:00.678Z,7.65
2022-11-12T04:45:51.199Z,7.66
2022-11-12T04:48:37.542Z,7.62
2022-11-12T04:51:41.915Z,7.66
2022-11-12T04:54:32.656Z,7.64
2022-11-12T04:57:29.129Z,7.62
2022-11-12T05:00:16.165Z,7.61
2022-11-12T05:03:11.882Z,7.54
2022-11-12T05:06:03.056Z,7.58
2022-11-12T05:08:50.161Z,7.61
2022-11-12T05:11:38.981Z,7.46
2022-11-12T05:14:29.687Z,7.58
2022-11-12T05:17:28.549Z,7.61
2022-11-12T05:20:19.153Z,7.63
2022-11-12T05:23:07.587Z,7.58
2022-11-12T05:25:54.391Z,7.55
2022-11-12T05:28:42.168Z,7.55
2022-11-12T05:31:33.427Z,7.59
2022-11-12T05:34:23.074Z,7.58
2022-11-12T05:37:11.354Z,7.59
2022-11-12T05:39:57.892Z,7.58
2022-11-12T05:42:45.540Z,7.60
2022-11-12T05:45:33.380Z,7.61
2022-11-12T05:48:24.544Z,7.60
2022-11-12T05:51:14.363Z,7.58
2022-11-12T05:54:01.298Z,7.60
2022-11-12T05:56:48.043Z,7.56
2022-11-12T05:59:34.457Z,7.54
2022-11-12T06:02:24.730Z,7.51
2022-11-12T06:05:11.696Z,7.49
2022-11-12T06:08:05.423Z,7.49
2022-11-12T06:10:52.685Z,7.50
2022-11-12T06:13:39.413Z,7.49
2022-11-12T06:16:26.021Z,7.47
2022-11-12T06:19:17.188Z,7.46
2022-11-12T06:22:10.500Z,7.46
2022-11-12T06:24:56.955Z,7.42
2022-11-12T06:27:43.537Z,7.41
2022-11-12T06:30:30.757Z,7.38
2022-11-12T06:33:20.183Z,7.38
2022-11-12T06:36:12.831Z,7.39
2022-11-12T06:39:10.029Z,7.40
2022-11-12T06:41:56.338Z,7.43
2022-11-12T06:44:42.661Z,7.46
2022-11-12T06:47:28.942Z,7.45
2022-11-12T06:50:15.468Z,7.48
2022-11-12T06:53:04.186Z,7.47
2022-11-12T06:55:55.945Z,7.48
2022-11-12T06:58:43.777Z,7.50
2022-11-12T07:01:30.354Z,7.50
2022-11-12T07:04:16.720Z,7.55
2022-11-12T07:07:06.686Z,7.55
2022-11-12T07:09:57.351Z,7.56
2022-11-12T07:12:53.387Z,7.61
2022-11-12T07:15:40.061Z,7.62
2022-11-12T07:18:27.837Z,7.58
2022-11-12T07:21:16.907Z,7.58
2022-11-12T07:24:03.816Z,7.60
2022-11-12T07:26:51.836Z,7.64
2022-11-12T07:29:47.445Z,7.64
2022-11-12T07:32:45.971Z,7.67
2022-11-12T07:35:36.846Z,7.71
2022-11-12T07:38:27.109Z,7.79
2022-11-12T07:41:15.479Z,7.87
2022-11-12T07:44:03.519Z,7.75
2022-11-12T07:46:49.874Z,8.05
2022-11-12T07:49:42.318Z,8.13
2022-11-12T07:52:36.156Z,8.24
2022-11-12T07:55:24.986Z,8.33
2022-11-12T07:58:12.903Z,8.43
2022-11-12T08:01:09.216Z,8.55
2022-11-12T08:03:56.029Z,8.64
2022-11-12T08:06:42.743Z,8.72
2022-11-12T08:09:52.827Z,8.80
2022-11-12T08:12:39.532Z,8.89
2022-11-12T08:15:26.930Z,8.95
2022-11-12T08:18:20.860Z,9.07
2022-11-12T08:21:08.976Z,9.17
2022-11-12T08:23:55.270Z,9.26
2022-11-12T08:26:41.643Z,9.36
2022-11-12T08:29:28.358Z,9.49
2022-11-12T08:32:15.989Z,9.61
2022-11-12T08:35:04.077Z,9.68
2022-11-12T08:37:50.905Z,9.84
2022-11-12T08:40:41.083Z,9.98
2022-11-12T08:43:27.841Z,10.06
2022-11-12T08:46:14.444Z,10.14
2022-11-12T08:49:00.909Z,10.20
2022-11-12T08:51:48.558Z,10.23
2022-11-12T08:54:37.539Z,10.27
2022-11-12T08:57:28.659Z,10.35
2022-11-12T09:00:16.306Z,10.42
2022-11-12T09:03:03.481Z,10.45
2022-11-12T09:05:50.895Z,10.48
2022-11-12T09:08:39.855Z,10.58
2022-11-12T09:11:32.682Z,10.69
2022-11-12T09:14:20.041Z,10.80
2022-11-12T09:17:06.531Z,10.87
2022-11-12T09:20:00.254Z,10.87
2022-11-12T09:22:46.709Z,10.98
2022-11-12T09:25:41.491Z,11.04
2022-11-12T09:28:31.598Z,11.07
2022-11-12T09:31:20.427Z,11.16
2022-11-12T09:34:06.865Z,11.22
2022-11-12T09:36:53.571Z,11.18
2022-11-12T09:39:43.442Z,11.32
2022-11-12T09:42:36.412Z,11.42
2022-11-12T09:45:31.244Z,11.48
2022-11-12T09:48:24.612Z,11.44
2022-11-12T09:51:24.836Z,11.37
2022-11-12T09:54:27.639Z,11.40
2022-11-12T09:57:26.647Z,11.47
2022-11-12T10:00:20.923Z,11.60
2022-11-12T10:03:14.552Z,11.64
2022-11-12T10:06:10.699Z,11.65
2022-11-12T10:09:06.462Z,11.61
2022-11-12T10:12:27.601Z,11.74
2022-11-12T10:16:07.053Z,11.84
2022-11-12T10:19:33.849Z,11.98
2022-11-12T10:22:35.170Z,12.05
2022-11-12T10:25:22.348Z,12.10
2022-11-12T10:28:26.077Z,12.14
2022-11-12T10:31:23.013Z,12.12
2022-11-12T10:34:27.320Z,12.21
2022-11-12T10:37:26.235Z,12.29
2022-11-12T10:40:35.183Z,12.34
2022-11-12T10:43:24.020Z,12.42
2022-11-12T10:46:22.984Z,12.51
2022-11-12T10:49:24.859Z,12.59
2022-11-12T10:52:25.837Z,12.62
2022-11-12T10:55:21.879Z,12.70
2022-11-12T10:58:21.327Z,12.75
2022-11-12T11:01:17.840Z,12.79
2022-11-12T11:04:07.181Z,12.89
2022-11-12T11:07:00.965Z,12.99
2022-11-12T11:09:54.713Z,13.05
2022-11-12T11:12:40.963Z,13.13
2022-11-12T11:15:29.991Z,13.04
2022-11-12T11:18:19.612Z,12.84
2022-11-12T11:21:23.602Z,12.94
2022-11-12T11:24:33.870Z,12.96
2022-11-12T11:27:42.389Z,12.96
2022-11-12T11:30:29.297Z,12.92
2022-11-12T11:33:30.440Z,12.91
2022-11-12T11:36:39.534Z,12.92
2022-11-12T11:39:48.588Z,12.96
2022-11-12T11:42:55.827Z,12.99
2022-11-12T11:46:07.097Z,12.94
2022-11-12T11:49:14.987Z,13.00
2022-11-12T11:52:38.745Z,13.03
2022-11-12T11:55:35.977Z,13.12
2022-11-12T12:02:23.863Z,13.24
2022-11-12T12:05:33.920Z,13.29
2022-11-12T12:08:32.220Z,13.26
2022-11-12T12:11:42.450Z,13.29
2022-11-12T12:14:43.013Z,13.27
2022-11-12T12:17:49.011Z,13.17
2022-11-12T12:20:44.929Z,13.23
2022-11-12T12:23:36.827Z,13.20
2022-11-12T12:26:36.829Z,13.13
2022-11-12T12:29:33.552Z,13.12
2022-11-12T12:32:29.316Z,13.10
2022-11-12T12:35:24.142Z,13.08
2022-11-12T12:38:19.085Z,13.08
2022-11-12T12:41:15.928Z,12.96
2022-11-12T12:44:11.701Z,13.08
2022-11-12T12:47:03.191Z,13.11
2022-11-12T12:49:51.068Z,13.13
2022-11-12T12:53:17.532Z,13.18
2022-11-12T12:56:49.220Z,13.18
2022-11-12T12:59:39.610Z,13.20
2022-11-12T13:02:28.879Z,13.19
2022-11-12T13:05:40.938Z,13.19
2022-11-12T13:08:28.095Z,13.16
2022-11-12T13:12:10.145Z,13.10
2022-11-12T13:15:14.402Z,13.07
2022-11-12T13:18:00.896Z,13.03
2022-11-12T13:21:10.120Z,12.99
2022-11-12T13:24:08.351Z,12.95
2022-11-12T13:26:59.419Z,12.92
2022-11-12T13:29:49.122Z,12.90
2022-11-12T13:32:43.683Z,12.87
2022-11-12T13:35:41.962Z,12.83
2022-11-12T13:38:28.901Z,12.78
2022-11-12T13:44:42.601Z,12.70
2022-11-12T13:47:29.932Z,12.63
2022-11-12T13:50:21.917Z,12.65
2022-11-12T13:53:09.511Z,12.63
2022-11-12T13:55:56.438Z,12.61
2022-11-12T13:58:44.699Z,12.56
2022-11-12T14:01:34.809Z,12.53
2022-11-12T14:04:24.283Z,12.49
2022-11-12T14:07:32.368Z,12.47
2022-11-12T14:10:40.054Z,12.45
2022-11-12T14:13:54.029Z,12.42
2022-11-12T14:16:52.474Z,12.39
2022-11-12T14:20:21.753Z,12.37
2022-11-12T14:23:24.189Z,12.30
2022-11-12T14:26:34.536Z,12.36
2022-11-12T14:29:25.978Z,12.29
2022-11-12T14:32:16.426Z,12.24
2022-11-12T14:35:20.272Z,12.26
2022-11-12T14:38:32.986Z,12.20
2022-11-12T14:41:23.803Z,12.13
2022-11-12T14:44:30.334Z,12.15
2022-11-12T14:47:19.451Z,12.09
2022-11-12T14:50:08.212Z,12.03
2022-11-12T14:52:58.764Z,12.00
2022-11-12T14:55:51.399Z,11.98
2022-11-12T14:58:41.432Z,11.93
2022-11-12T15:04:44.905Z,11.82
2022-11-12T15:07:34.819Z,11.83
2022-11-12T15:10:41.021Z,11.85
2022-11-12T15:13:40.564Z,11.71
2022-11-12T15:16:33.220Z,11.48
2022-11-12T15:19:26.690Z,11.56
2022-11-12T15:22:21.540Z,11.50
2022-11-12T15:25:24.373Z,11.48
2022-11-12T15:28:23.423Z,11.59
2022-11-12T15:31:22.631Z,11.52
2022-11-12T15:34:33.218Z,11.36
2022-11-12T15:37:25.851Z,11.29
2022-11-12T15:40:22.920Z,11.18
2022-11-12T15:43:18.122Z,11.09
2022-11-12T15:46:16.324Z,10.99
2022-11-12T15:49:03.115Z,10.97
2022-11-12T15:51:49.680Z,10.93
2022-11-12T15:54:40.936Z,10.81
2022-11-12T15:57:33.228Z,10.75
2022-11-12T16:00:22.298Z,10.70
2022-11-12T16:03:15.977Z,10.65
2022-11-12T16:06:08.882Z,10.60
2022-11-12T16:08:55.845Z,10.59
2022-11-12T16:11:42.458Z,10.56
2022-11-12T16:14:29.200Z,10.50
2022-11-12T16:17:17.330Z,10.44
2022-11-12T16:20:21.996Z,10.37
2022-11-12T16:23:09.046Z,10.37
2022-11-12T16:25:55.763Z,10.38
2022-11-12T16:28:42.009Z,10.31
2022-11-12T16:31:28.611Z,10.21
2022-11-12T16:34:18.066Z,10.09
2022-11-12T16:37:06.086Z,9.99
2022-11-12T16:39:55.591Z,9.94
2022-11-12T16:42:48.048Z,9.91
2022-11-12T16:45:40.962Z,9.90
2022-11-12T16:48:29.530Z,9.81
2022-11-12T16:51:20.853Z,9.85
2022-11-12T16:54:09.792Z,9.75
2022-11-12T16:56:56.569Z,9.75
2022-11-12T16:59:43.217Z,9.77
2022-11-12T17:02:29.613Z,9.75
2022-11-12T17:05:24.844Z,9.72
2022-11-12T17:08:11.623Z,9.70
2022-11-12T17:11:06.695Z,9.66
2022-11-12T17:13:52.969Z,9.63
2022-11-12T17:16:39.563Z,9.58
2022-11-12T17:19:27.035Z,9.55
2022-11-12T17:22:13.433Z,9.55
2022-11-12T17:24:59.735Z,9.54
2022-11-12T17:27:50.412Z,9.50
2022-11-12T17:30:36.602Z,9.44
2022-11-12T17:33:22.801Z,9.40
2022-11-12T17:36:14.083Z,9.33
2022-11-12T17:39:01.576Z,9.28
2022-11-12T17:41:48.582Z,9.34
2022-11-12T17:44:41.348Z,9.32
2022-11-12T17:47:39.325Z,9.31
2022-11-12T17:50:26.976Z,9.32
2022-11-12T17:53:13.369Z,9.27
2022-11-12T17:56:00.289Z,9.21
2022-11-12T17:58:56.224Z,9.18
2022-11-12T18:01:45.419Z,9.09
2022-11-12T18:04:46.702Z,9.10
2022-11-12T18:07:35.700Z,9.12
2022-11-12T18:10:28.462Z,9.08
2022-11-12T18:13:14.794Z,9.00
2022-11-12T18:16:03.621Z,9.01
2022-11-12T18:18:52.149Z,9.00
2022-11-12T18:21:40.056Z,8.98
2022-11-12T18:24:28.870Z,8.95
2022-11-12T18:27:17.245Z,8.92
2022-11-12T18:30:04.533Z,8.85
2022-11-12T18:32:50.964Z,8.75
2022-11-12T18:35:38.781Z,8.65
2022-11-12T18:38:32.984Z,8.62
2022-11-12T18:41:21.125Z,8.58
2022-11-12T18:44:07.553Z,8.55
2022-11-12T18:47:00.126Z,8.46
2022-11-12T18:49:46.436Z,8.43
2022-11-12T18:52:34.146Z,8.46
2022-11-12T18:55:20.480Z,8.47
2022-11-12T18:58:09.721Z,8.43
2022-11-12T19:00:56.398Z,8.41
2022-11-12T19:03:42.995Z,8.37
2022-11-12T19:06:29.205Z,8.36
2022-11-12T19:09:17.145Z,8.41
2022-11-12T19:12:03.854Z,8.41
2022-11-12T19:14:55.253Z,8.42
2022-11-12T19:17:42.814Z,8.39
2022-11-12T19:20:29.995Z,8.37
2022-11-12T19:23:16.445Z,8.29
2022-11-12T19:26:05.776Z,8.16
2022-11-12T19:28:52.528Z,8.22
2022-11-12T19:31:38.710Z,8.22
2022-11-12T19:34:24.989Z,8.08
2022-11-12T19:37:32.288Z,8.00
2022-11-12T19:40:34.910Z,7.96
2022-11-12T19:43:24.510Z,7.95
2022-11-12T19:46:12.513Z,7.91
2022-11-12T19:48:59.183Z,7.92
2022-11-12T19:51:45.866Z,7.93
2022-11-12T19:54:32.227Z,7.90
2022-11-12T19:57:18.649Z,7.82
2022-11-12T20:00:13.972Z,7.70
2022-11-12T20:03:00.716Z,7.76
2022-11-12T20:05:47.398Z,7.78
2022-11-12T20:08:36.965Z,7.73
2022-11-12T20:11:23.239Z,7.68
2022-11-12T20:14:09.541Z,7.68
2022-11-12T20:16:59.801Z,7.68
2022-11-12T20:19:49.288Z,7.66
2022-11-12T20:22:35.747Z,7.63
2022-11-12T20:25:22.706Z,7.61
2022-11-12T20:28:09.261Z,7.64
2022-11-12T20:31:03.667Z,7.60
2022-11-12T20:33:52.227Z,7.61
2022-11-12T20:36:38.940Z,7.60
2022-11-12T20:39:25.322Z,7.62
2022-11-12T20:42:11.529Z,7.63
2022-11-12T20:44:57.919Z,7.65
2022-11-12T20:47:44.537Z,7.64
2022-11-12T20:50:32.307Z,7.61
2022-11-12T20:53:18.824Z,7.60
2022-11-12T20:56:08.731Z,7.60
2022-11-12T20:58:55.491Z,7.56
2022-11-12T21:01:43.449Z,7.52
2022-11-12T21:04:30.012Z,7.47
2022-11-12T21:07:17.783Z,7.45
2022-11-12T21:10:05.234Z,7.40
2022-11-12T21:12:52.219Z,7.36
2022-11-12T21:15:38.380Z,7.38
2022-11-12T21:18:27.110Z,7.36
2022-11-12T21:21:15.400Z,7.32
2022-11-12T21:24:05.079Z,7.34
2022-11-12T21:26:51.882Z,7.33
2022-11-12T21:29:38.659Z,7.30
2022-11-12T21:32:25.218Z,7.24
2022-11-12T21:35:12.254Z,7.29
2022-11-12T21:37:59.148Z,7.29
2022-11-12T21:40:47.107Z,7.28
2022-11-12T21:43:37.179Z,7.28
2022-11-12T21:46:25.367Z,7.27
2022-11-12T21:49:11.719Z,7.28
2022-11-12T21:51:57.969Z,7.29
2022-11-12T21:54:44.486Z,7.29
2022-11-12T21:57:32.383Z,7.27
2022-11-12T22:00:41.140Z,7.28
2022-11-12T22:03:31.342Z,7.28
2022-11-12T22:06:19.084Z,7.31
2022-11-12T22:09:06.274Z,7.33
2022-11-12T22:11:52.681Z,7.28
2022-11-12T22:14:40.419Z,7.29
2022-11-12T22:17:27.038Z,7.28
2022-11-12T22:20:13.889Z,7.27
2022-11-12T22:23:00.391Z,7.25
2022-11-12T22:25:46.506Z,7.25
2022-11-12T22:28:34.250Z,7.17
2022-11-12T22:31:28.029Z,7.20
2022-11-12T22:34:14.856Z,7.22
2022-11-12T22:37:03.709Z,7.20
2022-11-12T22:39:50.188Z,7.20
2022-11-12T22:42:36.691Z,7.22
2022-11-12T22:45:22.905Z,7.20
2022-11-12T22:48:10.438Z,7.17
2022-11-12T22:50:59.875Z,7.13
2022-11-12T22:53:48.093Z,7.14
2022-11-12T22:56:34.486Z,7.13
2022-11-12T22:59:20.686Z,7.18
2022-11-12T23:02:08.044Z,7.18
2022-11-12T23:04:55.598Z,7.25
2022-11-12T23:07:42.048Z,7.26
2022-11-12T23:10:28.339Z,7.25
2022-11-12T23:13:17.225Z,7.25
2022-11-12T23:16:06.330Z,7.24
2022-11-12T23:18:55.090Z,7.22
2022-11-12T23:21:43.422Z,7.21
2022-11-12T23:24:29.989Z,7.21
2022-11-12T23:27:20.035Z,7.24
2022-11-12T23:30:07.440Z,7.22
2022-11-12T23:32:56.984Z,7.24
2022-11-12T23:35:43.563Z,7.21
2022-11-12T23:38:32.494Z,7.21
2022-11-12T23:41:22.723Z,7.20
2022-11-12T23:44:09.899Z,7.12
2022-11-12T23:46:59.270Z,7.18
2022-11-12T23:49:45.722Z,7.18
2022-11-12T23:52:34.446Z,7.15
2022-11-12T23:55:22.635Z,7.17
2022-11-12T23:58:09.298Z,7.17
